Terminal Aerodrome Forecast
Issued by NWS Charleston, WV

Home | Current Version | Previous Version | Text Only | Print | Product List | Glossary On
Versions: 1 2 3 4 5 6 7 8 9 10 11 12 13 14 15 16 17 18 19 20 21 22 23 24 25 26 27 28 29 30 31 32 33 34 35 36 37 38 39 40 41 42 43 44 45 46 47 48 49 50
000
FTUS41 KRLX 191506 AAA
TAFCRW
TAF AMD
KCRW 191506Z 1915/2012 05006KT P6SM OVC060
     FM191800 12009G16KT 6SM -RA BR OVC035
      TEMPO 1918/1921 3SM RA BR OVC025
     FM192100 15010G19KT 2SM RA BR OVC013
     FM200700 32008KT 3SM RA BR OVC011
     FM200800 32009G18KT 5SM -SN OVC015=

USA.gov is the U.S. government's official web portal to all federal, state and local government web resources and services.